sensor_id;sensor_type;location;lat;lon;timestamp;P1;durP1;ratioP1;P2;durP2;ratioP2
27580;SDS011;63557;52.302;7.964;2024-03-06T00:00:43;85.75;;;48.92;;
27580;SDS011;63557;52.302;7.964;2024-03-06T00:05:43;86.47;;;48.97;;
27580;SDS011;63557;52.302;7.964;2024-03-06T00:10:44;78.20;;;46.88;;
27580;SDS011;63557;52.302;7.964;2024-03-06T00:15:45;84.20;;;48.50;;
27580;SDS011;63557;52.302;7.964;2024-03-06T00:20:45;92.65;;;52.17;;
27580;SDS011;63557;52.302;7.964;2024-03-06T00:25:46;85.72;;;50.22;;
27580;SDS011;63557;52.302;7.964;2024-03-06T00:30:47;90.82;;;52.10;;
27580;SDS011;63557;52.302;7.964;2024-03-06T00:35:47;87.55;;;48.80;;
27580;SDS011;63557;52.302;7.964;2024-03-06T00:40:47;83.95;;;48.25;;
27580;SDS011;63557;52.302;7.964;2024-03-06T00:45:48;86.15;;;49.65;;
27580;SDS011;63557;52.302;7.964;2024-03-06T00:50:48;93.28;;;51.88;;
27580;SDS011;63557;52.302;7.964;2024-03-06T00:55:49;91.70;;;51.13;;
27580;SDS011;63557;52.302;7.964;2024-03-06T01:00:49;90.90;;;51.17;;
27580;SDS011;63557;52.302;7.964;2024-03-06T01:05:49;94.95;;;53.95;;
27580;SDS011;63557;52.302;7.964;2024-03-06T01:10:52;103.13;;;55.83;;
27580;SDS011;63557;52.302;7.964;2024-03-06T01:15:52;96.03;;;55.90;;
27580;SDS011;63557;52.302;7.964;2024-03-06T01:20:53;111.80;;;56.83;;
27580;SDS011;63557;52.302;7.964;2024-03-06T01:25:53;103.53;;;57.87;;
27580;SDS011;63557;52.302;7.964;2024-03-06T01:30:53;100.47;;;58.00;;
27580;SDS011;63557;52.302;7.964;2024-03-06T01:35:54;103.43;;;58.63;;
27580;SDS011;63557;52.302;7.964;2024-03-06T01:40:55;106.18;;;59.80;;
27580;SDS011;63557;52.302;7.964;2024-03-06T01:45:55;107.95;;;59.78;;
27580;SDS011;63557;52.302;7.964;2024-03-06T01:50:56;111.77;;;62.53;;
27580;SDS011;63557;52.302;7.964;2024-03-06T01:55:57;101.22;;;57.08;;
27580;SDS011;63557;52.302;7.964;2024-03-06T02:00:58;102.78;;;59.13;;
27580;SDS011;63557;52.302;7.964;2024-03-06T02:05:59;104.10;;;56.65;;
27580;SDS011;63557;52.302;7.964;2024-03-06T02:11:00;94.07;;;54.63;;
27580;SDS011;63557;52.302;7.964;2024-03-06T02:16:03;91.70;;;53.10;;
27580;SDS011;63557;52.302;7.964;2024-03-06T02:21:04;91.15;;;51.63;;
27580;SDS011;63557;52.302;7.964;2024-03-06T02:26:07;86.70;;;48.72;;
27580;SDS011;63557;52.302;7.964;2024-03-06T02:31:08;77.93;;;48.45;;
27580;SDS011;63557;52.302;7.964;2024-03-06T02:36:08;79.57;;;46.20;;
27580;SDS011;63557;52.302;7.964;2024-03-06T02:41:09;84.75;;;49.67;;
27580;SDS011;63557;52.302;7.964;2024-03-06T02:46:10;81.43;;;45.00;;
27580;SDS011;63557;52.302;7.964;2024-03-06T02:51:10;77.20;;;44.33;;
27580;SDS011;63557;52.302;7.964;2024-03-06T02:56:17;82.00;;;44.25;;
27580;SDS011;63557;52.302;7.964;2024-03-06T03:01:17;72.00;;;43.13;;
27580;SDS011;63557;52.302;7.964;2024-03-06T03:06:18;70.55;;;41.35;;
27580;SDS011;63557;52.302;7.964;2024-03-06T03:11:18;65.27;;;40.83;;
27580;SDS011;63557;52.302;7.964;2024-03-06T03:16:19;68.63;;;39.30;;
27580;SDS011;63557;52.302;7.964;2024-03-06T03:21:20;69.93;;;37.40;;
27580;SDS011;63557;52.302;7.964;2024-03-06T03:26:20;57.35;;;36.83;;
27580;SDS011;63557;52.302;7.964;2024-03-06T03:31:21;69.00;;;38.15;;
27580;SDS011;63557;52.302;7.964;2024-03-06T03:36:21;65.57;;;38.20;;
27580;SDS011;63557;52.302;7.964;2024-03-06T03:41:22;63.20;;;37.88;;
27580;SDS011;63557;52.302;7.964;2024-03-06T03:46:22;67.60;;;38.20;;
27580;SDS011;63557;52.302;7.964;2024-03-06T03:51:26;64.78;;;35.33;;
27580;SDS011;63557;52.302;7.964;2024-03-06T03:56:26;69.75;;;35.38;;
27580;SDS011;63557;52.302;7.964;2024-03-06T04:01:27;71.80;;;37.45;;
27580;SDS011;63557;52.302;7.964;2024-03-06T04:06:27;66.57;;;35.22;;
27580;SDS011;63557;52.302;7.964;2024-03-06T04:11:28;79.60;;;37.60;;
27580;SDS011;63557;52.302;7.964;2024-03-06T04:16:29;76.72;;;38.00;;
27580;SDS011;63557;52.302;7.964;2024-03-06T04:21:30;80.72;;;38.40;;
27580;SDS011;63557;52.302;7.964;2024-03-06T04:26:30;62.72;;;35.08;;
27580;SDS011;63557;52.302;7.964;2024-03-06T04:31:31;71.53;;;38.17;;
27580;SDS011;63557;52.302;7.964;2024-03-06T04:36:31;70.82;;;37.00;;
27580;SDS011;63557;52.302;7.964;2024-03-06T04:41:31;68.77;;;36.87;;
27580;SDS011;63557;52.302;7.964;2024-03-06T04:46:32;65.10;;;35.33;;
27580;SDS011;63557;52.302;7.964;2024-03-06T04:51:32;64.45;;;35.47;;
27580;SDS011;63557;52.302;7.964;2024-03-06T04:56:33;70.80;;;38.08;;
27580;SDS011;63557;52.302;7.964;2024-03-06T05:01:34;61.25;;;34.65;;
27580;SDS011;63557;52.302;7.964;2024-03-06T05:06:34;73.40;;;35.22;;
27580;SDS011;63557;52.302;7.964;2024-03-06T05:11:35;67.90;;;35.10;;
27580;SDS011;63557;52.302;7.964;2024-03-06T05:16:37;62.83;;;33.72;;
27580;SDS011;63557;52.302;7.964;2024-03-06T05:21:37;57.95;;;33.65;;
27580;SDS011;63557;52.302;7.964;2024-03-06T05:26:38;64.28;;;33.75;;
27580;SDS011;63557;52.302;7.964;2024-03-06T05:31:38;62.55;;;34.17;;
27580;SDS011;63557;52.302;7.964;2024-03-06T05:36:39;68.27;;;35.50;;
27580;SDS011;63557;52.302;7.964;2024-03-06T05:41:39;61.83;;;34.97;;
27580;SDS011;63557;52.302;7.964;2024-03-06T05:46:40;66.45;;;35.22;;
27580;SDS011;63557;52.302;7.964;2024-03-06T05:51:40;73.70;;;36.30;;
27580;SDS011;63557;52.302;7.964;2024-03-06T05:56:41;73.80;;;37.67;;
27580;SDS011;63557;52.302;7.964;2024-03-06T06:01:42;72.03;;;36.30;;
27580;SDS011;63557;52.302;7.964;2024-03-06T06:06:42;67.60;;;37.28;;
27580;SDS011;63557;52.302;7.964;2024-03-06T06:11:43;71.20;;;37.38;;
27580;SDS011;63557;52.302;7.964;2024-03-06T06:16:44;80.28;;;39.95;;
27580;SDS011;63557;52.302;7.964;2024-03-06T06:21:44;73.10;;;39.33;;
27580;SDS011;63557;52.302;7.964;2024-03-06T06:26:45;80.97;;;39.83;;
27580;SDS011;63557;52.302;7.964;2024-03-06T06:31:45;80.68;;;40.10;;
27580;SDS011;63557;52.302;7.964;2024-03-06T06:36:46;90.97;;;42.80;;
27580;SDS011;63557;52.302;7.964;2024-03-06T06:41:46;105.55;;;47.05;;
27580;SDS011;63557;52.302;7.964;2024-03-06T06:46:47;106.57;;;49.75;;
27580;SDS011;63557;52.302;7.964;2024-03-06T06:51:47;99.78;;;46.45;;
27580;SDS011;63557;52.302;7.964;2024-03-06T06:56:49;98.70;;;44.95;;
27580;SDS011;63557;52.302;7.964;2024-03-06T07:01:50;104.93;;;47.50;;
27580;SDS011;63557;52.302;7.964;2024-03-06T07:06:50;99.45;;;44.80;;
27580;SDS011;63557;52.302;7.964;2024-03-06T07:11:50;99.10;;;44.30;;
27580;SDS011;63557;52.302;7.964;2024-03-06T07:16:51;106.43;;;45.63;;
27580;SDS011;63557;52.302;7.964;2024-03-06T07:21:51;100.43;;;46.10;;
27580;SDS011;63557;52.302;7.964;2024-03-06T07:26:53;106.05;;;48.45;;
27580;SDS011;63557;52.302;7.964;2024-03-06T07:31:54;99.13;;;45.85;;
27580;SDS011;63557;52.302;7.964;2024-03-06T07:36:54;99.00;;;46.50;;
27580;SDS011;63557;52.302;7.964;2024-03-06T07:41:54;103.03;;;48.07;;
27580;SDS011;63557;52.302;7.964;2024-03-06T07:46:55;102.28;;;46.30;;
27580;SDS011;63557;52.302;7.964;2024-03-06T07:51:56;91.97;;;45.00;;
27580;SDS011;63557;52.302;7.964;2024-03-06T07:56:57;105.55;;;44.38;;
27580;SDS011;63557;52.302;7.964;2024-03-06T08:01:57;89.20;;;43.30;;
27580;SDS011;63557;52.302;7.964;2024-03-06T08:06:58;106.03;;;46.65;;
27580;SDS011;63557;52.302;7.964;2024-03-06T08:11:58;102.07;;;46.60;;
27580;SDS011;63557;52.302;7.964;2024-03-06T08:16:59;93.97;;;45.30;;
27580;SDS011;63557;52.302;7.964;2024-03-06T08:21:59;91.22;;;45.00;;
27580;SDS011;63557;52.302;7.964;2024-03-06T08:27:01;85.63;;;44.05;;
27580;SDS011;63557;52.302;7.964;2024-03-06T08:32:02;92.45;;;45.10;;
27580;SDS011;63557;52.302;7.964;2024-03-06T08:37:03;94.88;;;46.53;;
27580;SDS011;63557;52.302;7.964;2024-03-06T08:42:04;89.43;;;45.17;;
27580;SDS011;63557;52.302;7.964;2024-03-06T08:47:05;95.85;;;45.95;;
27580;SDS011;63557;52.302;7.964;2024-03-06T08:52:05;95.20;;;45.85;;
27580;SDS011;63557;52.302;7.964;2024-03-06T08:57:06;89.35;;;45.05;;
27580;SDS011;63557;52.302;7.964;2024-03-06T09:02:13;98.43;;;46.03;;
27580;SDS011;63557;52.302;7.964;2024-03-06T09:07:17;92.85;;;45.80;;
27580;SDS011;63557;52.302;7.964;2024-03-06T09:12:18;100.63;;;46.40;;
27580;SDS011;63557;52.302;7.964;2024-03-06T09:17:19;93.72;;;45.63;;
27580;SDS011;63557;52.302;7.964;2024-03-06T09:22:19;101.13;;;47.57;;
27580;SDS011;63557;52.302;7.964;2024-03-06T09:27:19;89.95;;;45.53;;
27580;SDS011;63557;52.302;7.964;2024-03-06T09:32:20;94.78;;;44.17;;
27580;SDS011;63557;52.302;7.964;2024-03-06T09:37:22;91.75;;;48.20;;
27580;SDS011;63557;52.302;7.964;2024-03-06T09:42:22;94.70;;;46.88;;
27580;SDS011;63557;52.302;7.964;2024-03-06T09:47:23;89.93;;;47.08;;
27580;SDS011;63557;52.302;7.964;2024-03-06T09:52:26;112.53;;;53.17;;
27580;SDS011;63557;52.302;7.964;2024-03-06T09:57:26;98.65;;;50.60;;
27580;SDS011;63557;52.302;7.964;2024-03-06T10:02:41;89.93;;;45.80;;
27580;SDS011;63557;52.302;7.964;2024-03-06T10:07:46;93.45;;;48.15;;
27580;SDS011;63557;52.302;7.964;2024-03-06T10:12:46;99.00;;;48.55;;
27580;SDS011;63557;52.302;7.964;2024-03-06T10:17:49;84.72;;;45.70;;
27580;SDS011;63557;52.302;7.964;2024-03-06T10:22:51;96.60;;;47.53;;
27580;SDS011;63557;52.302;7.964;2024-03-06T10:33:07;85.80;;;45.03;;
27580;SDS011;63557;52.302;7.964;2024-03-06T10:38:08;86.30;;;44.50;;
27580;SDS011;63557;52.302;7.964;2024-03-06T10:43:08;74.38;;;41.50;;
27580;SDS011;63557;52.302;7.964;2024-03-06T10:48:09;79.47;;;41.97;;
27580;SDS011;63557;52.302;7.964;2024-03-06T10:53:16;77.07;;;42.53;;
27580;SDS011;63557;52.302;7.964;2024-03-06T10:58:16;80.93;;;43.33;;
27580;SDS011;63557;52.302;7.964;2024-03-06T11:03:17;80.80;;;42.63;;
27580;SDS011;63557;52.302;7.964;2024-03-06T11:08:17;75.88;;;41.85;;
27580;SDS011;63557;52.302;7.964;2024-03-06T11:13:22;80.47;;;43.13;;
27580;SDS011;63557;52.302;7.964;2024-03-06T11:23:30;85.82;;;45.13;;
27580;SDS011;63557;52.302;7.964;2024-03-06T11:28:31;78.65;;;43.35;;
27580;SDS011;63557;52.302;7.964;2024-03-06T11:38:37;80.28;;;44.67;;
27580;SDS011;63557;52.302;7.964;2024-03-06T11:43:44;83.57;;;45.33;;
27580;SDS011;63557;52.302;7.964;2024-03-06T11:48:51;82.90;;;43.10;;
27580;SDS011;63557;52.302;7.964;2024-03-06T11:53:51;75.50;;;42.50;;
27580;SDS011;63557;52.302;7.964;2024-03-06T11:58:52;79.50;;;42.90;;
27580;SDS011;63557;52.302;7.964;2024-03-06T12:03:53;80.90;;;44.55;;
27580;SDS011;63557;52.302;7.964;2024-03-06T12:08:54;81.72;;;43.00;;
27580;SDS011;63557;52.302;7.964;2024-03-06T12:13:55;79.03;;;42.65;;
27580;SDS011;63557;52.302;7.964;2024-03-06T12:18:59;86.63;;;45.42;;
27580;SDS011;63557;52.302;7.964;2024-03-06T12:24:05;76.80;;;43.38;;
27580;SDS011;63557;52.302;7.964;2024-03-06T12:29:07;83.13;;;44.95;;
27580;SDS011;63557;52.302;7.964;2024-03-06T12:34:07;77.97;;;43.10;;
27580;SDS011;63557;52.302;7.964;2024-03-06T12:39:09;81.28;;;42.72;;
27580;SDS011;63557;52.302;7.964;2024-03-06T12:44:21;88.60;;;44.80;;
27580;SDS011;63557;52.302;7.964;2024-03-06T12:49:21;83.68;;;44.47;;
27580;SDS011;63557;52.302;7.964;2024-03-06T12:54:22;84.50;;;43.67;;
27580;SDS011;63557;52.302;7.964;2024-03-06T12:59:22;84.35;;;46.30;;
27580;SDS011;63557;52.302;7.964;2024-03-06T13:04:23;75.93;;;44.27;;
27580;SDS011;63557;52.302;7.964;2024-03-06T13:09:23;80.35;;;43.47;;
27580;SDS011;63557;52.302;7.964;2024-03-06T13:14:24;82.22;;;44.25;;
27580;SDS011;63557;52.302;7.964;2024-03-06T13:19:25;88.07;;;44.40;;
27580;SDS011;63557;52.302;7.964;2024-03-06T13:24:25;77.73;;;42.90;;
27580;SDS011;63557;52.302;7.964;2024-03-06T13:29:25;71.17;;;42.53;;
27580;SDS011;63557;52.302;7.964;2024-03-06T13:34:26;80.13;;;44.67;;
27580;SDS011;63557;52.302;7.964;2024-03-06T13:39:26;78.20;;;41.67;;
27580;SDS011;63557;52.302;7.964;2024-03-06T13:44:27;82.17;;;43.77;;
27580;SDS011;63557;52.302;7.964;2024-03-06T13:49:34;81.78;;;46.15;;
27580;SDS011;63557;52.302;7.964;2024-03-06T13:54:34;81.45;;;43.72;;
27580;SDS011;63557;52.302;7.964;2024-03-06T13:59:35;83.75;;;43.75;;
27580;SDS011;63557;52.302;7.964;2024-03-06T14:04:35;82.80;;;45.97;;
27580;SDS011;63557;52.302;7.964;2024-03-06T14:09:35;85.32;;;46.17;;
27580;SDS011;63557;52.302;7.964;2024-03-06T14:14:36;87.60;;;45.57;;
27580;SDS011;63557;52.302;7.964;2024-03-06T14:19:36;90.83;;;48.30;;
27580;SDS011;63557;52.302;7.964;2024-03-06T14:24:37;94.10;;;48.38;;
27580;SDS011;63557;52.302;7.964;2024-03-06T14:29:37;77.07;;;43.47;;
27580;SDS011;63557;52.302;7.964;2024-03-06T14:34:37;80.77;;;44.30;;
27580;SDS011;63557;52.302;7.964;2024-03-06T14:39:38;84.20;;;45.38;;
27580;SDS011;63557;52.302;7.964;2024-03-06T14:44:38;72.78;;;43.53;;
27580;SDS011;63557;52.302;7.964;2024-03-06T14:49:42;82.30;;;44.60;;
27580;SDS011;63557;52.302;7.964;2024-03-06T14:54:43;78.03;;;44.33;;
27580;SDS011;63557;52.302;7.964;2024-03-06T14:59:46;72.82;;;42.65;;
27580;SDS011;63557;52.302;7.964;2024-03-06T15:04:46;76.63;;;41.50;;
27580;SDS011;63557;52.302;7.964;2024-03-06T15:09:46;70.25;;;41.60;;
27580;SDS011;63557;52.302;7.964;2024-03-06T15:14:47;75.43;;;43.30;;
27580;SDS011;63557;52.302;7.964;2024-03-06T15:19:48;77.13;;;44.28;;
27580;SDS011;63557;52.302;7.964;2024-03-06T15:24:49;74.90;;;43.70;;
27580;SDS011;63557;52.302;7.964;2024-03-06T15:29:49;74.22;;;43.38;;
27580;SDS011;63557;52.302;7.964;2024-03-06T15:34:49;81.37;;;44.83;;
27580;SDS011;63557;52.302;7.964;2024-03-06T15:39:52;81.60;;;43.95;;
27580;SDS011;63557;52.302;7.964;2024-03-06T15:44:53;80.22;;;44.90;;
27580;SDS011;63557;52.302;7.964;2024-03-06T15:49:53;81.72;;;43.50;;
27580;SDS011;63557;52.302;7.964;2024-03-06T15:54:55;78.10;;;44.60;;
27580;SDS011;63557;52.302;7.964;2024-03-06T15:59:56;76.75;;;43.63;;
27580;SDS011;63557;52.302;7.964;2024-03-06T16:04:56;72.60;;;41.17;;
27580;SDS011;63557;52.302;7.964;2024-03-06T16:09:56;72.67;;;42.00;;
27580;SDS011;63557;52.302;7.964;2024-03-06T16:14:57;75.40;;;41.63;;
27580;SDS011;63557;52.302;7.964;2024-03-06T16:19:57;70.43;;;41.53;;
27580;SDS011;63557;52.302;7.964;2024-03-06T16:24:57;68.97;;;40.67;;
27580;SDS011;63557;52.302;7.964;2024-03-06T16:29:58;74.57;;;41.57;;
27580;SDS011;63557;52.302;7.964;2024-03-06T16:34:59;71.90;;;39.95;;
27580;SDS011;63557;52.302;7.964;2024-03-06T16:39:59;69.43;;;40.38;;
27580;SDS011;63557;52.302;7.964;2024-03-06T16:45:00;70.38;;;40.70;;
27580;SDS011;63557;52.302;7.964;2024-03-06T16:50:01;72.40;;;41.50;;
27580;SDS011;63557;52.302;7.964;2024-03-06T16:55:01;94.13;;;51.80;;
27580;SDS011;63557;52.302;7.964;2024-03-06T17:00:01;75.07;;;43.28;;
27580;SDS011;63557;52.302;7.964;2024-03-06T17:05:04;75.10;;;42.05;;
27580;SDS011;63557;52.302;7.964;2024-03-06T17:10:04;69.07;;;41.17;;
27580;SDS011;63557;52.302;7.964;2024-03-06T17:15:07;78.95;;;43.17;;
27580;SDS011;63557;52.302;7.964;2024-03-06T17:20:07;79.75;;;45.58;;
27580;SDS011;63557;52.302;7.964;2024-03-06T17:25:08;86.53;;;47.72;;
27580;SDS011;63557;52.302;7.964;2024-03-06T17:30:09;79.25;;;46.78;;
27580;SDS011;63557;52.302;7.964;2024-03-06T17:35:09;84.22;;;47.38;;
27580;SDS011;63557;52.302;7.964;2024-03-06T17:40:10;86.87;;;48.43;;
27580;SDS011;63557;52.302;7.964;2024-03-06T17:45:11;87.47;;;48.03;;
27580;SDS011;63557;52.302;7.964;2024-03-06T17:50:11;90.28;;;50.65;;
27580;SDS011;63557;52.302;7.964;2024-03-06T17:55:12;87.68;;;49.80;;
27580;SDS011;63557;52.302;7.964;2024-03-06T18:00:14;87.63;;;50.83;;
27580;SDS011;63557;52.302;7.964;2024-03-06T18:05:15;98.38;;;54.75;;
27580;SDS011;63557;52.302;7.964;2024-03-06T18:10:17;93.07;;;52.65;;
27580;SDS011;63557;52.302;7.964;2024-03-06T18:15:17;99.85;;;55.35;;
27580;SDS011;63557;52.302;7.964;2024-03-06T18:20:18;87.80;;;49.50;;
27580;SDS011;63557;52.302;7.964;2024-03-06T18:25:18;94.53;;;53.10;;
27580;SDS011;63557;52.302;7.964;2024-03-06T18:30:19;91.32;;;49.22;;
27580;SDS011;63557;52.302;7.964;2024-03-06T18:35:19;95.15;;;51.45;;
27580;SDS011;63557;52.302;7.964;2024-03-06T18:40:20;83.38;;;48.83;;
27580;SDS011;63557;52.302;7.964;2024-03-06T18:45:20;94.30;;;52.63;;
27580;SDS011;63557;52.302;7.964;2024-03-06T18:50:21;93.82;;;50.85;;
27580;SDS011;63557;52.302;7.964;2024-03-06T18:55:25;86.65;;;48.83;;
27580;SDS011;63557;52.302;7.964;2024-03-06T19:00:26;97.25;;;54.88;;
27580;SDS011;63557;52.302;7.964;2024-03-06T19:05:26;92.63;;;51.40;;
27580;SDS011;63557;52.302;7.964;2024-03-06T19:10:27;88.80;;;49.35;;
27580;SDS011;63557;52.302;7.964;2024-03-06T19:15:27;93.90;;;50.60;;
27580;SDS011;63557;52.302;7.964;2024-03-06T19:20:28;98.55;;;53.00;;
27580;SDS011;63557;52.302;7.964;2024-03-06T19:25:28;110.15;;;56.10;;
27580;SDS011;63557;52.302;7.964;2024-03-06T19:30:29;99.15;;;55.88;;
27580;SDS011;63557;52.302;7.964;2024-03-06T19:35:30;100.40;;;51.72;;
27580;SDS011;63557;52.302;7.964;2024-03-06T19:40:30;100.35;;;56.47;;
27580;SDS011;63557;52.302;7.964;2024-03-06T19:45:30;103.27;;;56.53;;
27580;SDS011;63557;52.302;7.964;2024-03-06T19:50:31;99.73;;;57.17;;
27580;SDS011;63557;52.302;7.964;2024-03-06T19:55:31;104.32;;;55.95;;
27580;SDS011;63557;52.302;7.964;2024-03-06T20:00:32;103.70;;;56.05;;
27580;SDS011;63557;52.302;7.964;2024-03-06T20:05:33;110.40;;;58.28;;
27580;SDS011;63557;52.302;7.964;2024-03-06T20:10:34;106.93;;;57.17;;
27580;SDS011;63557;52.302;7.964;2024-03-06T20:15:34;102.25;;;54.55;;
27580;SDS011;63557;52.302;7.964;2024-03-06T20:20:36;98.20;;;53.95;;
27580;SDS011;63557;52.302;7.964;2024-03-06T20:25:37;109.17;;;54.33;;
27580;SDS011;63557;52.302;7.964;2024-03-06T20:30:40;102.68;;;54.67;;
27580;SDS011;63557;52.302;7.964;2024-03-06T20:35:41;98.78;;;54.42;;
27580;SDS011;63557;52.302;7.964;2024-03-06T20:40:41;96.90;;;54.42;;
27580;SDS011;63557;52.302;7.964;2024-03-06T20:45:44;104.32;;;54.85;;
27580;SDS011;63557;52.302;7.964;2024-03-06T20:50:46;102.50;;;56.33;;
27580;SDS011;63557;52.302;7.964;2024-03-06T20:55:47;101.00;;;57.20;;
27580;SDS011;63557;52.302;7.964;2024-03-06T21:00:47;135.20;;;71.82;;
27580;SDS011;63557;52.302;7.964;2024-03-06T21:05:49;114.03;;;58.13;;
27580;SDS011;63557;52.302;7.964;2024-03-06T21:10:50;98.25;;;55.55;;
27580;SDS011;63557;52.302;7.964;2024-03-06T21:15:51;103.05;;;55.72;;
27580;SDS011;63557;52.302;7.964;2024-03-06T21:20:52;101.72;;;55.83;;
27580;SDS011;63557;52.302;7.964;2024-03-06T21:25:52;103.38;;;55.05;;
27580;SDS011;63557;52.302;7.964;2024-03-06T21:30:53;94.47;;;54.25;;
27580;SDS011;63557;52.302;7.964;2024-03-06T21:35:53;102.65;;;55.30;;
27580;SDS011;63557;52.302;7.964;2024-03-06T21:40:54;94.25;;;53.08;;
27580;SDS011;63557;52.302;7.964;2024-03-06T21:45:54;97.05;;;54.40;;
27580;SDS011;63557;52.302;7.964;2024-03-06T21:50:55;109.78;;;55.83;;
27580;SDS011;63557;52.302;7.964;2024-03-06T21:55:55;91.55;;;49.45;;
27580;SDS011;63557;52.302;7.964;2024-03-06T22:00:55;94.40;;;48.43;;
27580;SDS011;63557;52.302;7.964;2024-03-06T22:05:56;85.53;;;49.35;;
27580;SDS011;63557;52.302;7.964;2024-03-06T22:10:59;81.30;;;46.90;;
27580;SDS011;63557;52.302;7.964;2024-03-06T22:16:00;77.60;;;44.90;;
27580;SDS011;63557;52.302;7.964;2024-03-06T22:21:01;81.38;;;43.88;;
27580;SDS011;63557;52.302;7.964;2024-03-06T22:26:01;75.90;;;44.13;;
27580;SDS011;63557;52.302;7.964;2024-03-06T22:31:02;79.82;;;45.80;;
27580;SDS011;63557;52.302;7.964;2024-03-06T22:36:03;83.35;;;45.65;;
27580;SDS011;63557;52.302;7.964;2024-03-06T22:41:03;88.45;;;48.85;;
27580;SDS011;63557;52.302;7.964;2024-03-06T22:46:04;81.63;;;46.27;;
27580;SDS011;63557;52.302;7.964;2024-03-06T22:51:04;91.85;;;48.28;;
27580;SDS011;63557;52.302;7.964;2024-03-06T22:56:05;91.82;;;48.67;;
27580;SDS011;63557;52.302;7.964;2024-03-06T23:01:05;93.95;;;48.78;;
27580;SDS011;63557;52.302;7.964;2024-03-06T23:06:06;98.63;;;50.25;;
27580;SDS011;63557;52.302;7.964;2024-03-06T23:11:07;94.95;;;49.10;;
27580;SDS011;63557;52.302;7.964;2024-03-06T23:16:08;92.65;;;49.10;;
27580;SDS011;63557;52.302;7.964;2024-03-06T23:21:08;95.50;;;50.88;;
27580;SDS011;63557;52.302;7.964;2024-03-06T23:26:09;95.13;;;49.67;;
27580;SDS011;63557;52.302;7.964;2024-03-06T23:31:09;91.05;;;49.38;;
27580;SDS011;63557;52.302;7.964;2024-03-06T23:36:10;89.88;;;47.88;;
27580;SDS011;63557;52.302;7.964;2024-03-06T23:41:10;90.97;;;46.78;;
27580;SDS011;63557;52.302;7.964;2024-03-06T23:46:10;95.72;;;47.70;;
27580;SDS011;63557;52.302;7.964;2024-03-06T23:51:11;83.63;;;46.50;;
27580;SDS011;63557;52.302;7.964;2024-03-06T23:56:12;88.88;;;47.08;;
